Terminal Aerodrome Forecast
Issued by NWS

Home | Current Version | Previous Version | Text Only | Print | Product List | Glossary On
Versions: 1 2 3 4 5 6 7 8 9 10 11 12 13 14 15 16 17 18 19 20 21 22 23 24 25 26 27 28
000
FTUS43 KDLH 021714 AAB
TAFBRD
TAF AMD
KBRD 021714Z 0217/0312 08007KT P6SM BKN027
     FM030100 14005KT P6SM SCT035
     FM030700 12003KT 3SM BR SCT020 BKN025=

USA.gov is the U.S. government's official web portal to all federal, state and local government web resources and services.